sensor_id;sensor_type;location;lat;lon;timestamp;temperature;humidity
16273;DHT22;8244;50.044;9.006;2024-03-02T00:03:25;3.80;99.90
16273;DHT22;8244;50.044;9.006;2024-03-02T00:08:27;3.70;99.90
16273;DHT22;8244;50.044;9.006;2024-03-02T00:13:29;3.60;99.90
16273;DHT22;8244;50.044;9.006;2024-03-02T00:18:33;3.60;99.90
16273;DHT22;8244;50.044;9.006;2024-03-02T00:23:36;3.60;99.90
16273;DHT22;8244;50.044;9.006;2024-03-02T00:28:39;3.60;99.90
16273;DHT22;8244;50.044;9.006;2024-03-02T00:33:46;3.60;99.90
16273;DHT22;8244;50.044;9.006;2024-03-02T00:38:49;3.60;99.90
16273;DHT22;8244;50.044;9.006;2024-03-02T00:43:57;3.60;99.90
16273;DHT22;8244;50.044;9.006;2024-03-02T00:49:03;3.70;99.90
16273;DHT22;8244;50.044;9.006;2024-03-02T00:54:07;3.70;99.90
16273;DHT22;8244;50.044;9.006;2024-03-02T00:59:10;3.70;99.90
16273;DHT22;8244;50.044;9.006;2024-03-02T01:04:13;3.60;99.90
16273;DHT22;8244;50.044;9.006;2024-03-02T01:09:15;3.60;99.90
16273;DHT22;8244;50.044;9.006;2024-03-02T01:14:18;3.60;99.90
16273;DHT22;8244;50.044;9.006;2024-03-02T01:19:21;3.60;99.90
16273;DHT22;8244;50.044;9.006;2024-03-02T01:24:23;3.70;99.90
16273;DHT22;8244;50.044;9.006;2024-03-02T01:29:24;3.70;99.90
16273;DHT22;8244;50.044;9.006;2024-03-02T01:34:27;3.80;99.90
16273;DHT22;8244;50.044;9.006;2024-03-02T01:39:32;3.90;99.90
16273;DHT22;8244;50.044;9.006;2024-03-02T01:44:34;4.00;99.90
16273;DHT22;8244;50.044;9.006;2024-03-02T01:49:37;4.10;99.90
16273;DHT22;8244;50.044;9.006;2024-03-02T01:54:41;4.10;99.90
16273;DHT22;8244;50.044;9.006;2024-03-02T01:59:44;4.10;99.90
16273;DHT22;8244;50.044;9.006;2024-03-02T02:04:47;4.10;99.90
16273;DHT22;8244;50.044;9.006;2024-03-02T02:09:49;4.10;99.90
16273;DHT22;8244;50.044;9.006;2024-03-02T02:14:51;4.00;99.90
16273;DHT22;8244;50.044;9.006;2024-03-02T02:19:55;4.00;99.90
16273;DHT22;8244;50.044;9.006;2024-03-02T02:24:58;3.90;99.90
16273;DHT22;8244;50.044;9.006;2024-03-02T02:30:00;3.90;99.90
16273;DHT22;8244;50.044;9.006;2024-03-02T02:35:04;3.80;99.90
16273;DHT22;8244;50.044;9.006;2024-03-02T02:40:09;3.80;99.90
16273;DHT22;8244;50.044;9.006;2024-03-02T02:45:10;3.80;99.90
16273;DHT22;8244;50.044;9.006;2024-03-02T02:50:14;3.80;99.90
16273;DHT22;8244;50.044;9.006;2024-03-02T02:55:17;3.80;99.90
16273;DHT22;8244;50.044;9.006;2024-03-02T03:00:19;3.80;99.90
16273;DHT22;8244;50.044;9.006;2024-03-02T03:05:23;3.80;99.90
16273;DHT22;8244;50.044;9.006;2024-03-02T03:10:26;3.90;99.90
16273;DHT22;8244;50.044;9.006;2024-03-02T03:15:28;3.90;99.90
16273;DHT22;8244;50.044;9.006;2024-03-02T03:20:30;3.90;99.90
16273;DHT22;8244;50.044;9.006;2024-03-02T03:25:33;4.00;99.90
16273;DHT22;8244;50.044;9.006;2024-03-02T03:30:35;4.00;99.90
16273;DHT22;8244;50.044;9.006;2024-03-02T03:35:36;4.00;99.90
16273;DHT22;8244;50.044;9.006;2024-03-02T03:40:40;3.90;99.90
16273;DHT22;8244;50.044;9.006;2024-03-02T03:45:41;3.90;99.90
16273;DHT22;8244;50.044;9.006;2024-03-02T03:50:43;3.90;99.90
16273;DHT22;8244;50.044;9.006;2024-03-02T03:55:46;3.90;99.90
16273;DHT22;8244;50.044;9.006;2024-03-02T04:00:49;3.90;99.90
16273;DHT22;8244;50.044;9.006;2024-03-02T04:05:51;3.90;99.90
16273;DHT22;8244;50.044;9.006;2024-03-02T04:10:54;3.90;99.90
16273;DHT22;8244;50.044;9.006;2024-03-02T04:15:56;3.90;99.90
16273;DHT22;8244;50.044;9.006;2024-03-02T04:20:58;3.90;99.90
16273;DHT22;8244;50.044;9.006;2024-03-02T04:26:01;3.90;99.90
16273;DHT22;8244;50.044;9.006;2024-03-02T04:31:03;3.90;99.90
16273;DHT22;8244;50.044;9.006;2024-03-02T04:36:05;3.80;99.90
16273;DHT22;8244;50.044;9.006;2024-03-02T04:41:10;3.80;99.90
16273;DHT22;8244;50.044;9.006;2024-03-02T04:46:12;3.80;99.90
16273;DHT22;8244;50.044;9.006;2024-03-02T04:51:13;3.80;99.90
16273;DHT22;8244;50.044;9.006;2024-03-02T04:56:16;3.80;99.90
16273;DHT22;8244;50.044;9.006;2024-03-02T05:01:39;3.80;99.90
16273;DHT22;8244;50.044;9.006;2024-03-02T05:06:41;3.80;99.90
16273;DHT22;8244;50.044;9.006;2024-03-02T05:11:44;3.80;99.90
16273;DHT22;8244;50.044;9.006;2024-03-02T05:17:10;3.80;99.90
16273;DHT22;8244;50.044;9.006;2024-03-02T05:22:12;3.80;99.90
16273;DHT22;8244;50.044;9.006;2024-03-02T05:27:15;3.80;99.90
16273;DHT22;8244;50.044;9.006;2024-03-02T05:32:16;3.80;99.90
16273;DHT22;8244;50.044;9.006;2024-03-02T05:37:18;3.80;99.90
16273;DHT22;8244;50.044;9.006;2024-03-02T05:42:21;3.80;99.90
16273;DHT22;8244;50.044;9.006;2024-03-02T05:47:27;3.80;99.90
16273;DHT22;8244;50.044;9.006;2024-03-02T05:52:29;3.70;99.90
16273;DHT22;8244;50.044;9.006;2024-03-02T05:57:32;3.60;99.90
16273;DHT22;8244;50.044;9.006;2024-03-02T06:02:47;3.60;99.90
16273;DHT22;8244;50.044;9.006;2024-03-02T06:07:50;3.60;99.90
16273;DHT22;8244;50.044;9.006;2024-03-02T06:12:53;3.60;99.90
16273;DHT22;8244;50.044;9.006;2024-03-02T06:17:55;3.60;99.90
16273;DHT22;8244;50.044;9.006;2024-03-02T06:22:56;3.70;99.90
16273;DHT22;8244;50.044;9.006;2024-03-02T06:28:00;3.70;99.90
16273;DHT22;8244;50.044;9.006;2024-03-02T06:33:01;3.70;99.90
16273;DHT22;8244;50.044;9.006;2024-03-02T06:38:04;3.80;99.90
16273;DHT22;8244;50.044;9.006;2024-03-02T06:43:09;3.90;99.90
16273;DHT22;8244;50.044;9.006;2024-03-02T06:48:11;4.00;99.90
16273;DHT22;8244;50.044;9.006;2024-03-02T06:53:12;4.10;99.90
16273;DHT22;8244;50.044;9.006;2024-03-02T06:58:15;4.10;99.90
16273;DHT22;8244;50.044;9.006;2024-03-02T07:03:17;4.20;99.90
16273;DHT22;8244;50.044;9.006;2024-03-02T07:08:19;4.30;99.90
16273;DHT22;8244;50.044;9.006;2024-03-02T07:13:22;4.40;99.90
16273;DHT22;8244;50.044;9.006;2024-03-02T07:18:23;4.50;99.90
16273;DHT22;8244;50.044;9.006;2024-03-02T07:23:25;4.60;99.90
16273;DHT22;8244;50.044;9.006;2024-03-02T07:28:29;4.80;99.90
16273;DHT22;8244;50.044;9.006;2024-03-02T07:33:31;4.90;99.90
16273;DHT22;8244;50.044;9.006;2024-03-02T07:38:33;5.10;99.90
16273;DHT22;8244;50.044;9.006;2024-03-02T07:43:37;5.20;99.90
16273;DHT22;8244;50.044;9.006;2024-03-02T07:48:39;5.40;99.90
16273;DHT22;8244;50.044;9.006;2024-03-02T07:53:40;5.50;99.90
16273;DHT22;8244;50.044;9.006;2024-03-02T07:58:43;5.70;99.90
16273;DHT22;8244;50.044;9.006;2024-03-02T08:03:46;5.90;99.90
16273;DHT22;8244;50.044;9.006;2024-03-02T08:08:50;6.00;99.90
16273;DHT22;8244;50.044;9.006;2024-03-02T08:13:53;6.20;99.90
16273;DHT22;8244;50.044;9.006;2024-03-02T08:18:55;6.30;99.90
16273;DHT22;8244;50.044;9.006;2024-03-02T08:23:58;6.50;99.90
16273;DHT22;8244;50.044;9.006;2024-03-02T08:29:02;7.00;99.90
16273;DHT22;8244;50.044;9.006;2024-03-02T08:34:04;7.80;99.90
16273;DHT22;8244;50.044;9.006;2024-03-02T08:39:05;8.70;99.90
16273;DHT22;8244;50.044;9.006;2024-03-02T08:44:16;9.10;99.90
16273;DHT22;8244;50.044;9.006;2024-03-02T08:49:18;9.30;99.90
16273;DHT22;8244;50.044;9.006;2024-03-02T08:54:20;9.50;99.90
16273;DHT22;8244;50.044;9.006;2024-03-02T08:59:23;9.90;99.90
16273;DHT22;8244;50.044;9.006;2024-03-02T09:04:25;10.40;99.90
16273;DHT22;8244;50.044;9.006;2024-03-02T09:09:27;10.80;99.90
16273;DHT22;8244;50.044;9.006;2024-03-02T09:14:30;11.10;99.90
16273;DHT22;8244;50.044;9.006;2024-03-02T09:19:32;11.30;99.90
16273;DHT22;8244;50.044;9.006;2024-03-02T09:24:34;11.50;99.90
16273;DHT22;8244;50.044;9.006;2024-03-02T09:29:37;11.80;99.90
16273;DHT22;8244;50.044;9.006;2024-03-02T09:34:39;12.00;99.90
16273;DHT22;8244;50.044;9.006;2024-03-02T09:39:43;12.20;99.90
16273;DHT22;8244;50.044;9.006;2024-03-02T09:44:47;12.60;99.90
16273;DHT22;8244;50.044;9.006;2024-03-02T09:49:49;13.10;99.90
16273;DHT22;8244;50.044;9.006;2024-03-02T09:54:51;13.30;99.90
16273;DHT22;8244;50.044;9.006;2024-03-02T09:59:54;13.70;99.90
16273;DHT22;8244;50.044;9.006;2024-03-02T10:04:56;14.40;99.90
16273;DHT22;8244;50.044;9.006;2024-03-02T10:09:57;14.90;99.90
16273;DHT22;8244;50.044;9.006;2024-03-02T10:15:05;15.40;99.90
16273;DHT22;8244;50.044;9.006;2024-03-02T10:20:21;15.70;99.90
16273;DHT22;8244;50.044;9.006;2024-03-02T10:25:31;16.10;99.90
16273;DHT22;8244;50.044;9.006;2024-03-02T10:30:35;16.10;99.90
16273;DHT22;8244;50.044;9.006;2024-03-02T10:35:36;16.30;99.90
16273;DHT22;8244;50.044;9.006;2024-03-02T10:40:39;16.50;99.90
16273;DHT22;8244;50.044;9.006;2024-03-02T10:45:43;16.90;99.90
16273;DHT22;8244;50.044;9.006;2024-03-02T10:50:45;17.40;99.90
16273;DHT22;8244;50.044;9.006;2024-03-02T10:55:53;17.70;99.90
16273;DHT22;8244;50.044;9.006;2024-03-02T11:01:03;18.00;98.10
16273;DHT22;8244;50.044;9.006;2024-03-02T11:06:07;18.20;97.50
16273;DHT22;8244;50.044;9.006;2024-03-02T11:11:15;18.40;97.50
16273;DHT22;8244;50.044;9.006;2024-03-02T11:16:30;18.40;96.00
16273;DHT22;8244;50.044;9.006;2024-03-02T11:21:35;18.30;95.10
16273;DHT22;8244;50.044;9.006;2024-03-02T11:26:38;18.40;92.50
16273;DHT22;8244;50.044;9.006;2024-03-02T11:32:00;18.50;93.60
16273;DHT22;8244;50.044;9.006;2024-03-02T11:37:02;18.60;90.50
16273;DHT22;8244;50.044;9.006;2024-03-02T11:42:06;18.20;91.60
16273;DHT22;8244;50.044;9.006;2024-03-02T11:47:12;18.30;92.30
16273;DHT22;8244;50.044;9.006;2024-03-02T11:52:17;18.80;91.10
16273;DHT22;8244;50.044;9.006;2024-03-02T11:57:21;19.00;93.60
16273;DHT22;8244;50.044;9.006;2024-03-02T12:02:24;19.10;92.30
16273;DHT22;8244;50.044;9.006;2024-03-02T12:07:26;19.60;94.90
16273;DHT22;8244;50.044;9.006;2024-03-02T12:12:28;20.00;95.30
16273;DHT22;8244;50.044;9.006;2024-03-02T12:17:31;20.10;92.00
16273;DHT22;8244;50.044;9.006;2024-03-02T12:22:33;20.10;90.80
16273;DHT22;8244;50.044;9.006;2024-03-02T12:27:35;20.40;93.00
16273;DHT22;8244;50.044;9.006;2024-03-02T12:32:38;20.60;93.60
16273;DHT22;8244;50.044;9.006;2024-03-02T12:37:44;20.70;92.90
16273;DHT22;8244;50.044;9.006;2024-03-02T12:42:46;21.00;93.50
16273;DHT22;8244;50.044;9.006;2024-03-02T12:47:50;21.10;89.00
16273;DHT22;8244;50.044;9.006;2024-03-02T12:52:52;21.10;89.40
16273;DHT22;8244;50.044;9.006;2024-03-02T12:57:54;21.00;87.80
16273;DHT22;8244;50.044;9.006;2024-03-02T13:02:58;21.20;90.70
16273;DHT22;8244;50.044;9.006;2024-03-02T13:08:03;21.00;84.60
16273;DHT22;8244;50.044;9.006;2024-03-02T13:13:06;20.70;83.50
16273;DHT22;8244;50.044;9.006;2024-03-02T13:18:10;20.60;88.20
16273;DHT22;8244;50.044;9.006;2024-03-02T13:23:12;20.60;85.10
16273;DHT22;8244;50.044;9.006;2024-03-02T13:28:14;20.50;88.50
16273;DHT22;8244;50.044;9.006;2024-03-02T13:33:17;20.30;85.40
16273;DHT22;8244;50.044;9.006;2024-03-02T13:38:23;19.90;85.70
16273;DHT22;8244;50.044;9.006;2024-03-02T13:43:24;19.50;82.90
16273;DHT22;8244;50.044;9.006;2024-03-02T13:48:28;19.20;83.50
16273;DHT22;8244;50.044;9.006;2024-03-02T13:53:31;18.90;84.00
16273;DHT22;8244;50.044;9.006;2024-03-02T13:58:33;18.60;81.90
16273;DHT22;8244;50.044;9.006;2024-03-02T14:03:36;18.30;82.30
16273;DHT22;8244;50.044;9.006;2024-03-02T14:08:37;18.10;82.70
16273;DHT22;8244;50.044;9.006;2024-03-02T14:13:39;17.80;85.00
16273;DHT22;8244;50.044;9.006;2024-03-02T14:18:42;17.50;85.50
16273;DHT22;8244;50.044;9.006;2024-03-02T14:23:44;17.30;86.70
16273;DHT22;8244;50.044;9.006;2024-03-02T14:28:45;17.20;85.70
16273;DHT22;8244;50.044;9.006;2024-03-02T14:33:48;17.00;85.80
16273;DHT22;8244;50.044;9.006;2024-03-02T14:38:50;16.90;86.50
16273;DHT22;8244;50.044;9.006;2024-03-02T14:43:52;16.80;87.50
16273;DHT22;8244;50.044;9.006;2024-03-02T14:48:55;16.60;85.70
16273;DHT22;8244;50.044;9.006;2024-03-02T14:53:57;16.50;85.20
16273;DHT22;8244;50.044;9.006;2024-03-02T14:58:58;16.40;86.60
16273;DHT22;8244;50.044;9.006;2024-03-02T15:04:01;16.40;87.40
16273;DHT22;8244;50.044;9.006;2024-03-02T15:09:03;16.40;87.00
16273;DHT22;8244;50.044;9.006;2024-03-02T15:14:05;16.30;88.00
16273;DHT22;8244;50.044;9.006;2024-03-02T15:19:08;16.30;89.00
16273;DHT22;8244;50.044;9.006;2024-03-02T15:24:09;16.10;88.60
16273;DHT22;8244;50.044;9.006;2024-03-02T15:29:11;15.90;90.10
16273;DHT22;8244;50.044;9.006;2024-03-02T15:34:14;15.80;90.50
16273;DHT22;8244;50.044;9.006;2024-03-02T15:39:16;15.60;90.40
16273;DHT22;8244;50.044;9.006;2024-03-02T15:44:18;15.50;91.20
16273;DHT22;8244;50.044;9.006;2024-03-02T15:49:21;15.40;91.90
16273;DHT22;8244;50.044;9.006;2024-03-02T15:54:23;15.30;92.00
16273;DHT22;8244;50.044;9.006;2024-03-02T15:59:25;15.20;92.30
16273;DHT22;8244;50.044;9.006;2024-03-02T16:04:28;15.20;92.90
16273;DHT22;8244;50.044;9.006;2024-03-02T16:09:29;15.20;93.10
16273;DHT22;8244;50.044;9.006;2024-03-02T16:14:31;15.10;93.40
16273;DHT22;8244;50.044;9.006;2024-03-02T16:19:36;15.00;93.90
16273;DHT22;8244;50.044;9.006;2024-03-02T16:24:42;14.90;93.80
16273;DHT22;8244;50.044;9.006;2024-03-02T16:29:44;14.80;93.90
16273;DHT22;8244;50.044;9.006;2024-03-02T16:34:48;14.70;94.00
16273;DHT22;8244;50.044;9.006;2024-03-02T16:39:50;14.50;94.50
16273;DHT22;8244;50.044;9.006;2024-03-02T16:44:52;14.40;94.20
16273;DHT22;8244;50.044;9.006;2024-03-02T16:49:57;14.30;94.70
16273;DHT22;8244;50.044;9.006;2024-03-02T16:54:59;14.10;95.20
16273;DHT22;8244;50.044;9.006;2024-03-02T17:00:01;14.00;95.40
16273;DHT22;8244;50.044;9.006;2024-03-02T17:05:04;13.90;95.50
16273;DHT22;8244;50.044;9.006;2024-03-02T17:10:06;13.80;95.80
16273;DHT22;8244;50.044;9.006;2024-03-02T17:15:09;13.70;96.10
16273;DHT22;8244;50.044;9.006;2024-03-02T17:20:12;13.50;96.90
16273;DHT22;8244;50.044;9.006;2024-03-02T17:25:15;13.30;97.00
16273;DHT22;8244;50.044;9.006;2024-03-02T17:30:17;13.20;97.40
16273;DHT22;8244;50.044;9.006;2024-03-02T17:35:22;13.00;98.00
16273;DHT22;8244;50.044;9.006;2024-03-02T17:40:24;12.80;98.70
16273;DHT22;8244;50.044;9.006;2024-03-02T17:45:26;12.70;99.40
16273;DHT22;8244;50.044;9.006;2024-03-02T17:50:29;12.50;99.90
16273;DHT22;8244;50.044;9.006;2024-03-02T17:55:31;12.40;99.90
16273;DHT22;8244;50.044;9.006;2024-03-02T18:00:33;12.30;99.90
16273;DHT22;8244;50.044;9.006;2024-03-02T18:05:36;12.10;99.90
16273;DHT22;8244;50.044;9.006;2024-03-02T18:10:38;12.10;99.90
16273;DHT22;8244;50.044;9.006;2024-03-02T18:15:39;12.10;99.90
16273;DHT22;8244;50.044;9.006;2024-03-02T18:20:43;12.00;99.90
16273;DHT22;8244;50.044;9.006;2024-03-02T18:25:45;11.90;99.90
16273;DHT22;8244;50.044;9.006;2024-03-02T18:30:47;11.90;99.90
16273;DHT22;8244;50.044;9.006;2024-03-02T18:35:50;12.00;99.90
16273;DHT22;8244;50.044;9.006;2024-03-02T18:40:52;11.90;99.90
16273;DHT22;8244;50.044;9.006;2024-03-02T18:45:54;12.00;99.90
16273;DHT22;8244;50.044;9.006;2024-03-02T18:50:57;12.00;99.90
16273;DHT22;8244;50.044;9.006;2024-03-02T18:55:59;12.00;99.90
16273;DHT22;8244;50.044;9.006;2024-03-02T19:01:00;12.00;99.90
16273;DHT22;8244;50.044;9.006;2024-03-02T19:06:04;12.00;99.90
16273;DHT22;8244;50.044;9.006;2024-03-02T19:11:12;12.00;99.90
16273;DHT22;8244;50.044;9.006;2024-03-02T19:16:14;11.90;99.90
16273;DHT22;8244;50.044;9.006;2024-03-02T19:21:18;11.90;99.90
16273;DHT22;8244;50.044;9.006;2024-03-02T19:26:19;11.90;99.90
16273;DHT22;8244;50.044;9.006;2024-03-02T19:31:21;11.90;99.90
16273;DHT22;8244;50.044;9.006;2024-03-02T19:36:24;11.90;99.90
16273;DHT22;8244;50.044;9.006;2024-03-02T19:41:26;11.90;99.90
16273;DHT22;8244;50.044;9.006;2024-03-02T19:46:28;11.90;99.90
16273;DHT22;8244;50.044;9.006;2024-03-02T19:51:34;12.00;99.90
16273;DHT22;8244;50.044;9.006;2024-03-02T19:56:37;12.00;99.90
16273;DHT22;8244;50.044;9.006;2024-03-02T20:01:39;11.90;99.90
16273;DHT22;8244;50.044;9.006;2024-03-02T20:06:42;11.90;99.90
16273;DHT22;8244;50.044;9.006;2024-03-02T20:11:44;11.80;99.90
16273;DHT22;8244;50.044;9.006;2024-03-02T20:16:46;11.80;99.90
16273;DHT22;8244;50.044;9.006;2024-03-02T20:21:49;11.70;99.90
16273;DHT22;8244;50.044;9.006;2024-03-02T20:26:51;11.60;99.90
16273;DHT22;8244;50.044;9.006;2024-03-02T20:31:55;11.50;99.90
16273;DHT22;8244;50.044;9.006;2024-03-02T20:37:00;11.50;99.90
16273;DHT22;8244;50.044;9.006;2024-03-02T20:42:02;11.40;99.90
16273;DHT22;8244;50.044;9.006;2024-03-02T20:47:04;11.30;99.90
16273;DHT22;8244;50.044;9.006;2024-03-02T20:52:07;11.20;99.90
16273;DHT22;8244;50.044;9.006;2024-03-02T20:57:09;11.00;99.90
16273;DHT22;8244;50.044;9.006;2024-03-02T21:02:11;10.90;99.90
16273;DHT22;8244;50.044;9.006;2024-03-02T21:07:14;10.70;99.90
16273;DHT22;8244;50.044;9.006;2024-03-02T21:12:16;10.70;99.90
16273;DHT22;8244;50.044;9.006;2024-03-02T21:17:18;10.50;99.90
16273;DHT22;8244;50.044;9.006;2024-03-02T21:22:21;10.40;99.90
16273;DHT22;8244;50.044;9.006;2024-03-02T21:27:23;10.20;99.90
16273;DHT22;8244;50.044;9.006;2024-03-02T21:32:24;10.10;99.90
16273;DHT22;8244;50.044;9.006;2024-03-02T21:37:27;9.90;99.90
16273;DHT22;8244;50.044;9.006;2024-03-02T21:42:29;9.80;99.90
16273;DHT22;8244;50.044;9.006;2024-03-02T21:47:31;9.60;99.90
16273;DHT22;8244;50.044;9.006;2024-03-02T21:52:34;9.60;99.90
16273;DHT22;8244;50.044;9.006;2024-03-02T21:57:35;9.60;99.90
16273;DHT22;8244;50.044;9.006;2024-03-02T22:02:37;9.60;99.90
16273;DHT22;8244;50.044;9.006;2024-03-02T22:07:40;9.70;99.90
16273;DHT22;8244;50.044;9.006;2024-03-02T22:12:42;9.70;99.90
16273;DHT22;8244;50.044;9.006;2024-03-02T22:17:43;9.70;99.90
16273;DHT22;8244;50.044;9.006;2024-03-02T22:22:46;9.60;99.90
16273;DHT22;8244;50.044;9.006;2024-03-02T22:27:48;9.50;99.90
16273;DHT22;8244;50.044;9.006;2024-03-02T22:32:55;9.40;99.90
16273;DHT22;8244;50.044;9.006;2024-03-02T22:37:59;9.30;99.90
16273;DHT22;8244;50.044;9.006;2024-03-02T22:43:00;9.30;99.90
16273;DHT22;8244;50.044;9.006;2024-03-02T22:48:02;9.20;99.90
16273;DHT22;8244;50.044;9.006;2024-03-02T22:53:05;9.10;99.90
16273;DHT22;8244;50.044;9.006;2024-03-02T22:58:07;9.10;99.90
16273;DHT22;8244;50.044;9.006;2024-03-02T23:03:09;9.10;99.90
16273;DHT22;8244;50.044;9.006;2024-03-02T23:08:12;9.00;99.90
16273;DHT22;8244;50.044;9.006;2024-03-02T23:13:15;8.90;99.90
16273;DHT22;8244;50.044;9.006;2024-03-02T23:18:18;8.80;99.90
16273;DHT22;8244;50.044;9.006;2024-03-02T23:23:21;8.70;99.90
16273;DHT22;8244;50.044;9.006;2024-03-02T23:28:22;8.60;99.90
16273;DHT22;8244;50.044;9.006;2024-03-02T23:33:24;8.40;99.90
16273;DHT22;8244;50.044;9.006;2024-03-02T23:38:27;8.50;99.90
16273;DHT22;8244;50.044;9.006;2024-03-02T23:43:29;8.40;99.90
16273;DHT22;8244;50.044;9.006;2024-03-02T23:48:31;8.30;99.90
16273;DHT22;8244;50.044;9.006;2024-03-02T23:53:34;8.20;99.90
16273;DHT22;8244;50.044;9.006;2024-03-02T23:58:35;8.10;99.90
